Airfield :
LOGIN :

Register | Disclaimer

   EN    FR    IT 

 










Legend :    VFR   Marginal VFR   IFR   Intensive IFR   Very Intensive IFR
Visi :
Ceiling :
>= 8 km
>= 3000ft
5 to 8 km
1000 to 3000 ft
1500m to 5 km
500 to 1000 ft
800 to 1500m
200 to 500 ft
< 800m
< 200 ft
Symbols :   Thunderstorms  Fog  Heavy snow  Heavy precipitations  Wind > 20 kt
SIGMETs :     Misc.  Thunderstorms  Icing  Turbulence  Mountain Waves  Volcanic Ashes







- Airport Elevation : 141 ft
- IATA code : SKS


EKSP - Srydstrup Vojens

CURRENT METAR :
  • 161220Z 24022G32KT 9999 BKN005 07/06 Q0997 TEMPO 22020G30KT 4000 DZ

EXPIRED METARs :
  • 161154Z 24020G30KT 9999 BKN005 07/06 Q0998 TEMPO SPECI 22020G30KT 4000 DZ
  • 161150Z 24020KT 9999 BKN005 07/06 Q0998 TEMPO 22018G28KT 4000 DZ
  • 161120Z 24018KT 9999 BKN007 07/06 Q0998 TEMPO 22018G28KT 4000 DZ
  • 161050Z 23018KT 9999 BKN009 07/06 Q0998 TEMPO 23018G28KT 4000 DZ
  • 161029Z 24018G28KT 9999 BKN009 07/06 Q0999 TEMPO SPECI 23018G28KT 4000 DZ
  • 161020Z 24018KT 9999 BKN008 07/06 Q0999 TEMPO 24018G28KT 4000 DZ
  • 160950Z 24020KT 9999 BKN009 07/06 Q0999 TEMPO 24018G28KT 4000 DZ

TAF TAF EKSP
Valid from the 16 at 12:00 until the 17 at 12:00 UTC


161123Z 1612/1712 23018KT 9000 BKN010
TEMPO 1612/1621 22020G32KT 4000 -RADZ BKN006
BECMG 1621/1623 22020G35KT 6000 BKN020
BECMG 1623/1701 26018G28KT
TEMPO 1623/1706 4000 SHRA BKN008CB
BECMG 1705/1707 27012KT
TEMPO 1706/1712 3000 SHRASNGS BKN008 SCT012CB
No reported NOTAMs for that airfield.



MET'MAP, your aeronautical weather chart ! - Copyright ORBIFLY December 2007 - Disclaimer

ORBIFLY MET'MAP TEAM :

Programming & Development : Alexandra Zaïnal
Concept & Development : Baudouin d'Aumeries
Co-Development & Prog : Marc-Olivier Méhu
Technical & hardware support : Manuel Goepfert

Contact : metmap@orbifly.com




SOURCES & CREDITS :

   NOAA